Time;durP1;ratioP1;P1;durP2;ratioP2;P2;SDS_P1;SDS_P2;PMS_P1;PMS_P2;Temp;Humidity;BMP_temperature;BMP_pressure;BME280_temperature;BME280_humidity;BME280_pressure;Samples;Min_cycle;Max_cycle;Signal;HPM_P1;HPM_P2
2023/04/02 00:02:45;;;;;;;;;;;;;;;4.70;99.99;99300.34;133715;1301;23239;-80
2023/04/02 00:05:49;;;;;;;;;;;;;;;4.59;99.97;99304.75;133689;1301;23144;-80
2023/04/02 00:09:03;;;;;;;;;;;;;;;4.47;100.00;99311.24;133591;1301;22495;-80
2023/04/02 00:12:14;;;;;;;;;;;;;;;4.41;99.99;99316.01;133722;1301;22941;-80
2023/04/02 00:15:15;;;;;;;;;;;;;;;4.38;100.00;99316.52;133529;1308;22459;-80
2023/04/02 00:18:17;;;;;;;;;;;;;;;4.34;100.00;99322.73;133697;1301;22454;-80
2023/04/02 00:21:32;;;;;;;;;;;;;;;;;;;;;
2023/04/02 00:25:00;;;;;;;;;;;;;;;4.31;100.00;99330.02;133680;1300;22491;-80
2023/04/02 00:28:24;;;;;;;;;;;;;;;4.29;100.00;99332.77;133684;1300;22469;-80
2023/04/02 00:31:29;;;;;;;;;;;;;;;4.24;100.00;99335.00;133700;1302;22550;-79
2023/04/02 00:34:36;;;;;;;;;;;;;;;4.21;99.94;99334.63;133703;1301;23315;-80
2023/04/02 00:37:41;;;;;;;;;;;;;;;4.17;100.00;99344.09;133500;1301;23327;-79
2023/04/02 00:41:04;;;;;;;;;;;;;;;;;;;;;
2023/04/02 00:44:12;;;;;;;;;;;;;;;4.13;100.00;99343.23;133729;1304;23120;-80
2023/04/02 00:47:26;;;;;;;;;;;;;;;4.09;99.94;99348.39;133718;1301;22464;-79
2023/04/02 00:50:39;;;;;;;;;;;;;;;4.04;99.95;99349.29;133551;1301;22447;-79
2023/04/02 00:53:43;;;;;;;;;;;;;;;4.00;99.96;99357.86;133521;1303;22480;-80
2023/04/02 00:56:45;;;;;;;;;;;;;;;3.97;99.98;99360.33;133738;1301;22496;-80
2023/04/02 01:00:30;;;;;;;;;;;;;;;3.93;99.84;99360.45;133765;1300;22484;-80
2023/04/02 01:03:56;;;;;;;;;;;;;;;3.87;99.90;99365.77;133483;1301;22570;-79
2023/04/02 01:07:05;;;;;;;;;;;;;;;3.82;99.93;99367.64;133656;1304;22462;-79
2023/04/02 01:10:34;;;;;;;;;;;;;;;;;;;;;
2023/04/02 01:13:56;;;;;;;;;;;;;;;3.75;99.85;99373.02;133721;1301;22429;-80
2023/04/02 01:17:00;;;;;;;;;;;;;;;3.73;99.90;99375.61;133745;1297;22466;-80
2023/04/02 01:20:40;;;;;;;;;;;;;;;3.72;99.86;99382.02;133731;1297;22489;-80
2023/04/02 01:24:15;;;;;;;;;;;;;;;3.69;99.84;99388.30;133705;1301;22511;-79
2023/04/02 01:27:16;;;;;;;;;;;;;;;3.66;99.58;99396.04;132816;1309;22485;-80
2023/04/02 01:30:27;;;;;;;;;;;;;;;3.68;99.70;99397.44;133723;1308;22446;-80
2023/04/02 01:33:33;;;;;;;;;;;;;;;3.66;99.62;99404.11;133707;1301;23111;-80
2023/04/02 01:36:45;;;;;;;;;;;;;;;3.61;99.51;99404.35;133577;1302;22520;-80
2023/04/02 01:39:48;;;;;;;;;;;;;;;3.56;99.53;99406.50;133550;1298;22599;-80
2023/04/02 01:43:34;;;;;;;;;;;;;;;;;;;;;
2023/04/02 01:47:09;;;;;;;;;;;;;;;;;;;;;
2023/04/02 01:50:21;;;;;;;;;;;;;;;3.37;99.24;99425.98;133496;1308;23107;-77
2023/04/02 01:53:27;;;;;;;;;;;;;;;3.31;99.21;99428.54;133555;1301;22448;-78
2023/04/02 01:56:29;;;;;;;;;;;;;;;3.29;99.56;99435.27;133564;1308;22458;-77
2023/04/02 01:59:51;;;;;;;;;;;;;;;3.26;99.28;99437.45;133587;1307;23172;-77
2023/04/02 02:04:00;;;;;;;;;;;;;;;3.25;99.61;99441.86;133716;1308;22445;-78
2023/04/02 02:07:27;;;;;;;;;;;;;;;;;;;;;
2023/04/02 02:11:25;;;;;;;;;;;;;;;3.24;99.43;99448.79;133481;1301;22483;-77
2023/04/02 02:14:34;;;;;;;;;;;;;;;3.18;99.06;99453.36;133611;1301;22471;-78
2023/04/02 02:18:26;;;;;;;;;;;;;;;;;;;;;
2023/04/02 02:21:50;;;;;;;;;;;;;;;3.10;99.07;99466.42;133501;1301;22527;-78
2023/04/02 02:25:14;;;;;;;;;;;;;;;3.09;99.01;99472.13;133269;1305;22477;-77
2023/04/02 02:28:41;;;;;;;;;;;;;;;3.05;99.20;99473.48;133706;1304;22457;-77
2023/04/02 02:31:43;;;;;;;;;;;;;;;3.03;98.96;99474.74;133707;1301;22465;-77
2023/04/02 02:34:50;;;;;;;;;;;;;;;3.00;98.74;99476.98;133648;1301;22501;-77
2023/04/02 02:38:11;;;;;;;;;;;;;;;2.98;98.80;99486.52;133562;1301;22434;-77
2023/04/02 02:41:40;;;;;;;;;;;;;;;2.96;98.78;99488.63;129665;1301;5361955;-76
2023/04/02 02:44:55;;;;;;;;;;;;;;;2.93;98.49;99493.45;133553;1308;23211;-77
2023/04/02 02:48:12;;;;;;;;;;;;;;;2.93;98.63;99500.41;133679;1304;23472;-77
2023/04/02 02:51:20;;;;;;;;;;;;;;;2.93;98.70;99502.72;133700;1301;23175;-77
2023/04/02 02:54:33;;;;;;;;;;;;;;;2.91;98.65;99509.47;133684;1301;25124;-77
2023/04/02 02:57:41;;;;;;;;;;;;;;;2.92;98.68;99513.45;133576;1308;22448;-77
2023/04/02 03:01:02;;;;;;;;;;;;;;;2.93;98.72;99514.42;133646;1304;22462;-77
2023/04/02 03:04:06;;;;;;;;;;;;;;;2.96;98.73;99519.38;133736;1301;22460;-77
2023/04/02 03:07:07;;;;;;;;;;;;;;;2.97;98.88;99521.93;133582;1307;23192;-76
2023/04/02 03:10:38;;;;;;;;;;;;;;;;;;;;;
2023/04/02 03:14:34;;;;;;;;;;;;;;;2.96;98.25;99541.95;133709;1301;22453;-76
2023/04/02 03:17:40;;;;;;;;;;;;;;;2.93;98.27;99542.70;133552;1301;23212;-77
2023/04/02 03:20:46;;;;;;;;;;;;;;;2.89;98.14;99552.84;133444;1304;22493;-77
2023/04/02 03:24:10;;;;;;;;;;;;;;;2.81;97.47;99559.23;133554;1301;22405;-77
2023/04/02 03:27:31;;;;;;;;;;;;;;;2.75;97.36;99563.98;133545;1301;22520;-77
2023/04/02 03:30:56;;;;;;;;;;;;;;;2.70;97.27;99568.40;133626;1302;23289;-76
2023/04/02 03:34:03;;;;;;;;;;;;;;;2.66;97.17;99571.73;133632;1301;23295;-77
2023/04/02 03:37:50;;;;;;;;;;;;;;;2.56;96.75;99578.84;133678;1304;23251;-77
2023/04/02 03:41:40;;;;;;;;;;;;;;;2.49;96.84;99579.63;133729;1301;23234;-77
2023/04/02 03:44:49;;;;;;;;;;;;;;;2.38;96.21;99586.44;133649;1305;22440;-77
2023/04/02 03:48:00;;;;;;;;;;;;;;;2.30;96.23;99594.65;133677;1301;22583;-77
2023/04/02 03:51:10;;;;;;;;;;;;;;;2.16;96.20;99606.02;133646;1301;23172;-77
2023/04/02 03:54:13;;;;;;;;;;;;;;;2.09;96.51;99609.13;133748;1302;22464;-77
2023/04/02 03:57:32;;;;;;;;;;;;;;;;;;;;;
2023/04/02 04:01:24;;;;;;;;;;;;;;;2.04;96.69;99625.59;133775;1301;23217;-77
2023/04/02 04:04:26;;;;;;;;;;;;;;;2.00;96.38;99629.88;133785;1301;22430;-77
2023/04/02 04:07:35;;;;;;;;;;;;;;;1.98;96.17;99635.98;133630;1305;22532;-77
2023/04/02 04:10:36;;;;;;;;;;;;;;;1.96;96.36;99645.73;133768;1308;24166;-77
2023/04/02 04:13:43;;;;;;;;;;;;;;;1.93;96.38;99653.64;133781;1293;22446;-77
2023/04/02 04:18:03;;;;;;;;;;;;;;;1.88;96.17;99659.10;133667;1301;22487;-77
2023/04/02 04:21:29;;;;;;;;;;;;;;;1.80;96.01;99665.89;133759;1301;22472;-77
2023/04/02 04:24:38;;;;;;;;;;;;;;;1.73;95.68;99667.98;133656;1302;23514;-76
2023/04/02 04:27:42;;;;;;;;;;;;;;;1.73;95.93;99677.39;133580;1304;22491;-76
2023/04/02 04:31:29;;;;;;;;;;;;;;;;;;;;;
2023/04/02 04:34:52;;;;;;;;;;;;;;;1.72;95.98;99689.16;133019;1309;22479;-77
2023/04/02 04:38:14;;;;;;;;;;;;;;;1.74;96.15;99694.73;133488;1303;22545;-77
2023/04/02 04:41:40;;;;;;;;;;;;;;;1.76;96.16;99698.79;133494;1309;22569;-76
2023/04/02 04:44:58;;;;;;;;;;;;;;;1.77;96.08;99704.95;133569;1301;22535;-77
2023/04/02 04:48:34;;;;;;;;;;;;;;;;;;;;;
2023/04/02 04:51:50;;;;;;;;;;;;;;;1.83;96.37;99717.09;133450;1301;23225;-77
2023/04/02 04:54:57;;;;;;;;;;;;;;;1.84;96.26;99717.52;133320;1302;22453;-77
2023/04/02 04:58:29;;;;;;;;;;;;;;;1.86;96.39;99723.84;133462;1302;22564;-78
2023/04/02 05:01:59;;;;;;;;;;;;;;;1.89;96.51;99729.02;133587;1307;23815;-78
2023/04/02 05:05:31;;;;;;;;;;;;;;;;;;;;;
2023/04/02 05:08:56;;;;;;;;;;;;;;;1.94;96.79;99745.65;133472;1303;22464;-77
2023/04/02 05:12:13;;;;;;;;;;;;;;;1.97;96.70;99749.66;133423;1301;22550;-77
2023/04/02 05:15:21;;;;;;;;;;;;;;;2.00;96.85;99759.29;133488;1302;23214;-77
2023/04/02 05:18:25;;;;;;;;;;;;;;;2.06;97.79;99761.13;133571;1301;22580;-77
2023/04/02 05:21:32;;;;;;;;;;;;;;;2.13;97.83;99765.11;133490;1301;23195;-77
2023/04/02 05:24:37;;;;;;;;;;;;;;;2.18;97.91;99772.91;133512;1292;22473;-77
2023/04/02 05:28:07;;;;;;;;;;;;;;;;;;;;;
2023/04/02 05:31:34;;;;;;;;;;;;;;;;;;;;;
2023/04/02 05:35:07;;;;;;;;;;;;;;;;;;;;;
2023/04/02 05:38:26;;;;;;;;;;;;;;;2.29;96.90;99785.73;133579;1301;22939;-77
2023/04/02 05:41:31;;;;;;;;;;;;;;;2.30;96.94;99795.02;133525;1301;22444;-77
2023/04/02 05:44:37;;;;;;;;;;;;;;;2.32;96.61;99792.98;133538;1301;22502;-77
2023/04/02 05:47:42;;;;;;;;;;;;;;;2.31;96.54;99799.86;133546;1302;22471;-77
2023/04/02 05:50:47;;;;;;;;;;;;;;;2.33;96.49;99806.15;133559;1303;22448;-77
2023/04/02 05:57:41;;;;;;;;;;;;;;;2.34;96.06;99816.57;133494;1303;23679;-80
2023/04/02 06:01:29;;;;;;;;;;;;;;;2.35;95.68;99819.91;133533;1303;22409;-79
2023/04/02 06:04:45;;;;;;;;;;;;;;;2.37;95.24;99828.16;133601;1301;22470;-79
2023/04/02 06:08:12;;;;;;;;;;;;;;;2.39;94.93;99832.41;133623;1301;22447;-79
2023/04/02 06:11:52;;;;;;;;;;;;;;;2.39;94.49;99832.36;133497;1301;22451;-79
2023/04/02 06:23:19;;;;;;;;;;;;;;;;;;;;;
2023/04/02 06:26:58;;;;;;;;;;;;;;;2.51;93.40;99850.92;133558;1302;22463;-81
2023/04/02 06:30:40;;;;;;;;;;;;;;;2.56;92.89;99856.02;133688;1301;22475;-83
2023/04/02 06:33:53;;;;;;;;;;;;;;;2.58;93.17;99867.02;133601;1301;22551;-83
2023/04/02 06:37:25;;;;;;;;;;;;;;;2.58;92.82;99873.14;133555;1301;23204;-81
2023/04/02 06:41:14;;;;;;;;;;;;;;;;;;;;;
2023/04/02 06:44:38;;;;;;;;;;;;;;;2.61;92.90;99886.32;133054;1300;22475;-84
2023/04/02 06:48:22;;;;;;;;;;;;;;;2.62;92.64;99888.31;133550;1303;22462;-80
2023/04/02 06:52:09;;;;;;;;;;;;;;;;;;;;;
2023/04/02 06:55:30;;;;;;;;;;;;;;;;;;;;;
2023/04/02 06:59:03;;;;;;;;;;;;;;;;;;;;;
2023/04/02 07:03:14;;;;;;;;;;;;;;;2.70;92.35;99917.73;133518;1301;23469;-78
2023/04/02 07:06:49;;;;;;;;;;;;;;;;;;;;;
2023/04/02 07:10:14;;;;;;;;;;;;;;;2.71;92.14;99928.66;133510;1301;22487;-81
2023/04/02 07:13:39;;;;;;;;;;;;;;;;;;;;;
2023/04/02 07:16:41;;;;;;;;;;;;;;;2.70;91.58;99932.61;133687;1301;23604;-79
2023/04/02 07:19:48;;;;;;;;;;;;;;;2.73;91.33;99937.64;133546;1301;22549;-77
2023/04/02 07:22:53;;;;;;;;;;;;;;;2.76;91.02;99941.86;133598;1301;22420;-80
2023/04/02 07:25:54;;;;;;;;;;;;;;;2.83;91.41;99946.59;133643;1308;22482;-78
2023/04/02 07:28:55;;;;;;;;;;;;;;;2.90;91.69;99953.05;133667;1301;22533;-78
2023/04/02 07:31:56;;;;;;;;;;;;;;;2.97;92.30;99955.75;133672;1301;22470;-77
2023/04/02 07:35:06;;;;;;;;;;;;;;;3.48;95.87;99958.99;133706;1300;23322;-79
2023/04/02 07:38:18;;;;;;;;;;;;;;;;;;;;;
2023/04/02 07:41:41;;;;;;;;;;;;;;;;;;;;;
2023/04/02 07:45:02;;;;;;;;;;;;;;;3.38;90.52;99966.66;133650;1303;22475;-77
2023/04/02 07:48:04;;;;;;;;;;;;;;;3.30;90.60;99968.34;133617;1301;22463;-76
2023/04/02 07:51:15;;;;;;;;;;;;;;;3.23;90.17;99974.17;133663;1301;22460;-75
2023/04/02 07:55:08;;;;;;;;;;;;;;;;;;;;;
2023/04/02 07:58:08;;;;;;;;;;;;;;;3.03;89.74;99984.12;133459;1302;22584;-76
2023/04/02 08:01:35;;;;;;;;;;;;;;;3.01;90.06;99992.02;133592;1301;22447;-77
2023/04/02 08:05:09;;;;;;;;;;;;;;;3.02;90.12;99998.76;133722;1301;22581;-82
2023/04/02 08:08:13;;;;;;;;;;;;;;;3.00;90.51;100008.67;133580;1308;22462;-80
2023/04/02 08:11:16;;;;;;;;;;;;;;;3.04;90.47;100011.65;133685;1301;22441;-80
2023/04/02 08:14:19;;;;;;;;;;;;;;;3.06;90.59;100017.10;133592;1303;22447;-79
2023/04/02 08:17:25;;;;;;;;;;;;;;;3.04;90.53;100021.33;133680;1297;22504;-79
2023/04/02 08:20:33;;;;;;;;;;;;;;;2.99;90.32;100027.61;133724;1301;23274;-85
2023/04/02 08:23:34;;;;;;;;;;;;;;;2.99;90.47;100034.25;133599;1301;22407;-79
2023/04/02 08:26:40;;;;;;;;;;;;;;;2.97;90.24;100036.89;133750;1301;22504;-79
2023/04/02 08:29:43;;;;;;;;;;;;;;;2.98;90.23;100046.61;133828;1300;22480;-79
2023/04/02 08:32:48;;;;;;;;;;;;;;;3.01;90.20;100045.44;133852;1300;23095;-79
2023/04/02 08:35:50;;;;;;;;;;;;;;;3.02;90.03;100050.42;133836;1300;22442;-80
2023/04/02 08:39:02;;;;;;;;;;;;;;;;;;;;;
2023/04/02 08:42:39;;;;;;;;;;;;;;;3.06;90.11;100057.99;133800;1300;22942;-80
2023/04/02 08:46:22;;;;;;;;;;;;;;;3.17;89.80;100061.00;133827;1301;22442;-80
2023/04/02 08:50:01;;;;;;;;;;;;;;;;;;;;;
2023/04/02 08:53:24;;;;;;;;;;;;;;;3.36;90.17;100067.35;133834;1301;22469;-79
2023/04/02 08:56:51;;;;;;;;;;;;;;;3.41;90.22;100078.01;133638;1301;22542;-79
2023/04/02 09:00:11;;;;;;;;;;;;;;;;;;;;;
2023/04/02 09:03:29;;;;;;;;;;;;;;;3.48;88.84;100082.52;133664;1301;22453;-79
2023/04/02 09:07:07;;;;;;;;;;;;;;;;;;;;;
2023/04/02 09:10:31;;;;;;;;;;;;;;;;;;;;;
2023/04/02 09:13:52;;;;;;;;;;;;;;;;;;;;;
2023/04/02 09:17:30;;;;;;;;;;;;;;;3.62;87.56;100088.56;133518;1303;22469;-76
2023/04/02 09:20:30;;;;;;;;;;;;;;;3.70;86.93;100095.98;133648;1301;23742;-80
2023/04/02 09:23:30;;;;;;;;;;;;;;;3.70;86.62;100101.95;133860;1300;22593;-79
2023/04/02 09:26:44;;;;;;;;;;;;;;;3.66;86.66;100113.81;133835;1301;22470;-79
2023/04/02 09:29:51;;;;;;;;;;;;;;;3.65;86.88;100116.69;133661;1301;22464;-80
2023/04/02 09:33:00;;;;;;;;;;;;;;;3.64;86.96;100123.25;133828;1300;22509;-80
2023/04/02 09:36:17;;;;;;;;;;;;;;;3.58;86.14;100127.66;133447;1300;23204;-79
2023/04/02 09:39:27;;;;;;;;;;;;;;;3.48;85.23;100131.64;133525;1300;23246;-81
2023/04/02 09:42:30;;;;;;;;;;;;;;;3.42;85.87;100140.68;133817;1301;22647;-79
2023/04/02 09:46:11;;;;;;;;;;;;;;;;;;;;;
2023/04/02 09:49:44;;;;;;;;;;;;;;;3.41;85.39;100146.02;133856;1300;22705;-78
2023/04/02 09:52:55;;;;;;;;;;;;;;;3.38;84.75;100152.04;133561;1303;22551;-81
2023/04/02 09:56:19;;;;;;;;;;;;;;;3.35;85.03;100161.70;133835;1300;22497;-79
2023/04/02 09:59:56;;;;;;;;;;;;;;;3.32;84.90;100163.48;133736;1300;22977;-78
2023/04/02 10:03:21;;;;;;;;;;;;;;;3.31;84.73;100169.13;133721;1300;22464;-85
2023/04/02 10:07:09;;;;;;;;;;;;;;;3.29;85.12;100172.96;133663;1300;23202;-79
2023/04/02 10:14:30;;;;;;;;;;;;;;;3.26;84.50;100186.34;133606;1299;22471;-79
2023/04/02 10:17:35;;;;;;;;;;;;;;;3.21;84.40;100195.27;133879;1300;23226;-82
2023/04/02 10:21:11;;;;;;;;;;;;;;;;;;;;;
2023/04/02 10:25:26;;;;;;;;;;;;;;;3.22;84.62;100204.17;133706;1301;22523;-81
2023/04/02 10:28:34;;;;;;;;;;;;;;;3.23;84.69;100206.64;133764;1301;23608;-79
2023/04/02 10:32:07;;;;;;;;;;;;;;;;;;;;;
2023/04/02 10:35:42;;;;;;;;;;;;;;;;;;;;;
2023/04/02 10:43:23;;;;;;;;;;;;;;;;;;;;;
2023/04/02 10:47:20;;;;;;;;;;;;;;;;;;;;;
2023/04/02 10:50:33;;;;;;;;;;;;;;;;;;;;;
2023/04/02 10:53:54;;;;;;;;;;;;;;;3.79;83.28;100221.57;133338;1304;22533;-79
2023/04/02 10:56:59;;;;;;;;;;;;;;;3.75;82.51;100223.48;133294;1304;22464;-79
2023/04/02 11:00:18;;;;;;;;;;;;;;;3.73;83.08;100225.72;133277;1304;22443;-79
2023/04/02 11:03:55;;;;;;;;;;;;;;;3.74;83.31;100226.17;132912;1307;22536;-78
2023/04/02 11:07:30;;;;;;;;;;;;;;;3.85;83.92;100232.44;132917;1310;23596;-83
2023/04/02 11:10:39;;;;;;;;;;;;;;;3.93;83.30;100241.80;133032;1306;22490;-79
2023/04/02 11:14:50;;;;;;;;;;;;;;;;;;;;;
2023/04/02 11:18:32;;;;;;;;;;;;;;;;;;;;;
2023/04/02 11:22:13;;;;;;;;;;;;;;;3.80;82.29;100259.61;132890;1307;22489;-78
2023/04/02 11:25:41;;;;;;;;;;;;;;;3.74;82.69;100262.20;132858;1307;23186;-79
2023/04/02 11:29:01;;;;;;;;;;;;;;;3.68;82.18;100270.73;133111;1304;22489;-78
2023/04/02 11:32:41;;;;;;;;;;;;;;;3.59;82.08;100277.20;133364;1304;22471;-78
2023/04/02 11:36:08;;;;;;;;;;;;;;;;;;;;;
2023/04/02 11:39:09;;;;;;;;;;;;;;;3.54;82.30;100283.71;133658;1297;22593;-79
2023/04/02 11:42:33;;;;;;;;;;;;;;;;;;;;;
2023/04/02 11:46:03;;;;;;;;;;;;;;;3.53;82.46;100287.63;133674;1301;23264;-78
2023/04/02 11:49:34;;;;;;;;;;;;;;;3.51;82.41;100293.02;133759;1300;22451;-79
2023/04/02 11:53:08;;;;;;;;;;;;;;;;;;;;;
2023/04/02 12:00:46;;;;;;;;;;;;;;;3.66;82.03;100306.73;133756;1300;22509;-78
2023/04/02 12:04:01;;;;;;;;;;;;;;;3.74;82.41;100314.55;133719;1300;23204;-82
2023/04/02 12:07:55;;;;;;;;;;;;;;;;;;;;;
2023/04/02 12:10:56;;;;;;;;;;;;;;;4.18;82.34;100315.52;133784;1301;23164;-78
2023/04/02 12:14:26;;;;;;;;;;;;;;;4.17;81.61;100320.95;133849;1301;22420;-78
2023/04/02 12:17:33;;;;;;;;;;;;;;;4.17;81.44;100321.66;133816;1300;22569;-79
2023/04/02 12:20:37;;;;;;;;;;;;;;;4.12;81.05;100325.00;133644;1303;22455;-77
2023/04/02 12:24:03;;;;;;;;;;;;;;;4.07;80.61;100323.20;133597;1301;23084;-78
2023/04/02 12:27:24;;;;;;;;;;;;;;;;;;;;;
2023/04/02 12:30:24;;;;;;;;;;;;;;;4.00;80.29;100330.22;133840;1300;23093;-79
2023/04/02 12:33:29;;;;;;;;;;;;;;;3.98;79.87;100333.45;133764;1301;23192;-75
2023/04/02 12:36:30;;;;;;;;;;;;;;;3.97;80.18;100332.52;133823;1300;22476;-76
2023/04/02 12:39:50;;;;;;;;;;;;;;;;;;;;;
2023/04/02 12:42:54;;;;;;;;;;;;;;;3.93;80.26;100344.70;133824;1300;22537;-78
2023/04/02 12:46:16;;;;;;;;;;;;;;;3.93;80.70;100351.39;133653;1300;22450;-76
2023/04/02 12:49:28;;;;;;;;;;;;;;;3.93;80.56;100349.48;133719;1300;22486;-76
2023/04/02 12:52:29;;;;;;;;;;;;;;;3.94;80.90;100349.24;133793;1300;22478;-76
2023/04/02 12:55:33;;;;;;;;;;;;;;;3.93;80.26;100350.51;133639;1301;23084;-77
2023/04/02 12:58:44;;;;;;;;;;;;;;;3.87;79.86;100351.13;133831;1300;22435;-80
2023/04/02 13:02:16;;;;;;;;;;;;;;;3.88;80.34;100355.48;133636;1300;22539;-76
2023/04/02 13:05:40;;;;;;;;;;;;;;;3.95;80.75;100362.56;133675;1301;23139;-76
2023/04/02 13:08:41;;;;;;;;;;;;;;;4.01;80.82;100361.92;133808;1300;22482;-76
2023/04/02 13:11:42;;;;;;;;;;;;;;;4.02;80.10;100361.35;133822;1301;22462;-76
2023/04/02 13:14:43;;;;;;;;;;;;;;;3.98;80.03;100368.29;133800;1300;22450;-80
2023/04/02 13:18:00;;;;;;;;;;;;;;;3.98;80.53;100373.38;133809;1301;22486;-76
2023/04/02 13:21:02;;;;;;;;;;;;;;;3.98;80.27;100373.95;133789;1301;22449;-77
2023/04/02 13:24:16;;;;;;;;;;;;;;;3.94;80.01;100377.77;133799;1300;22554;-76
2023/04/02 13:27:17;;;;;;;;;;;;;;;3.92;80.23;100388.89;133638;1300;22584;-77
2023/04/02 13:30:22;;;;;;;;;;;;;;;3.94;80.09;100385.93;133710;1297;22452;-76
2023/04/02 13:33:22;;;;;;;;;;;;;;;3.96;79.97;100385.48;133805;1300;23313;-77
2023/04/02 13:36:36;;;;;;;;;;;;;;;3.98;80.30;100384.05;133787;1300;22515;-77
2023/04/02 13:40:07;;;;;;;;;;;;;;;;;;;;;
2023/04/02 13:43:17;;;;;;;;;;;;;;;4.06;80.05;100393.30;133795;1300;22461;-76
2023/04/02 13:46:20;;;;;;;;;;;;;;;4.08;79.97;100398.72;133831;1300;23234;-76
2023/04/02 13:49:32;;;;;;;;;;;;;;;4.12;80.31;100401.09;133610;1301;22466;-79
2023/04/02 13:52:33;;;;;;;;;;;;;;;4.11;79.60;100402.00;133621;1301;22599;-78
2023/04/02 13:55:36;;;;;;;;;;;;;;;4.13;79.91;100407.46;133809;1293;22474;-75
2023/04/02 13:58:40;;;;;;;;;;;;;;;4.17;80.10;100411.91;133780;1300;22475;-74
2023/04/02 14:02:14;;;;;;;;;;;;;;;;;;;;;
2023/04/02 14:06:12;;;;;;;;;;;;;;;4.24;79.72;100414.32;133724;1300;22613;-79
2023/04/02 14:09:43;;;;;;;;;;;;;;;;;;;;;
2023/04/02 14:13:44;;;;;;;;;;;;;;;4.23;79.32;100426.65;133646;1300;22477;-77
2023/04/02 14:17:21;;;;;;;;;;;;;;;4.20;79.54;100430.20;133767;1301;22471;-75
2023/04/02 14:20:43;;;;;;;;;;;;;;;4.20;79.84;100433.17;133760;1300;23299;-78
2023/04/02 14:24:55;;;;;;;;;;;;;;;4.20;80.12;100428.95;133827;1301;22476;-75
2023/04/02 14:27:46;;;;;;;;;;;;;;;4.20;80.14;100436.52;133733;1300;23272;-78
2023/04/02 14:30:57;;;;;;;;;;;;;;;4.19;80.22;100442.03;133819;1301;23238;-78
2023/04/02 14:34:18;;;;;;;;;;;;;;;4.19;80.42;100451.48;133844;1300;22452;-79
2023/04/02 14:37:29;;;;;;;;;;;;;;;4.18;79.99;100452.42;133810;1301;22554;-78
2023/04/02 14:40:36;;;;;;;;;;;;;;;4.18;80.29;100452.37;133823;1300;22531;-78
2023/04/02 14:44:21;;;;;;;;;;;;;;;4.18;80.44;100457.45;133412;1302;314289;-78
2023/04/02 14:51:34;;;;;;;;;;;;;;;4.18;80.75;100465.70;133662;1307;22484;-78
2023/04/02 14:54:37;;;;;;;;;;;;;;;4.18;80.21;100467.49;133815;1300;22842;-77
2023/04/02 14:57:59;;;;;;;;;;;;;;;4.17;80.01;100472.25;133799;1301;22427;-77
2023/04/02 15:01:39;;;;;;;;;;;;;;;;;;;;;
2023/04/02 15:05:21;;;;;;;;;;;;;;;4.18;80.30;100477.78;133603;1301;22437;-76
2023/04/02 15:08:25;;;;;;;;;;;;;;;4.18;80.35;100482.55;133666;1301;22519;-77
2023/04/02 15:11:31;;;;;;;;;;;;;;;4.20;80.27;100479.95;133786;1301;22456;-75
2023/04/02 15:15:08;;;;;;;;;;;;;;;;;;;;;
2023/04/02 15:18:14;;;;;;;;;;;;;;;4.19;80.28;100479.62;133551;1300;22530;-76
2023/04/02 15:21:18;;;;;;;;;;;;;;;4.16;79.85;100490.89;133671;1302;22501;-79
2023/04/02 15:24:48;;;;;;;;;;;;;;;4.15;80.16;100490.51;133768;1301;22448;-75
2023/04/02 15:28:11;;;;;;;;;;;;;;;4.14;80.09;100493.67;133769;1301;22479;-77
2023/04/02 15:31:23;;;;;;;;;;;;;;;;;;;;;
2023/04/02 15:34:27;;;;;;;;;;;;;;;4.14;79.90;100499.15;133806;1301;22467;-80
2023/04/02 15:37:35;;;;;;;;;;;;;;;4.13;80.21;100503.23;133808;1301;23342;-75
2023/04/02 15:41:07;;;;;;;;;;;;;;;4.13;80.21;100508.11;133568;1299;22448;-78
2023/04/02 15:44:17;;;;;;;;;;;;;;;4.13;80.00;100511.44;133750;1300;23209;-79
2023/04/02 15:47:34;;;;;;;;;;;;;;;4.12;80.02;100519.09;133782;1300;22473;-83
2023/04/02 15:50:56;;;;;;;;;;;;;;;4.10;79.60;100519.38;133584;1301;22573;-77
2023/04/02 15:53:57;;;;;;;;;;;;;;;4.09;79.99;100522.08;133820;1297;22495;-77
2023/04/02 15:57:06;;;;;;;;;;;;;;;4.08;79.57;100524.98;133819;1301;22478;-77
2023/04/02 16:00:18;;;;;;;;;;;;;;;4.07;79.75;100528.06;133794;1300;22469;-77
2023/04/02 16:03:25;;;;;;;;;;;;;;;4.05;79.37;100531.64;133774;1302;22450;-77
2023/04/02 16:06:33;;;;;;;;;;;;;;;4.05;79.75;100532.70;133742;1301;22455;-77
2023/04/02 16:09:48;;;;;;;;;;;;;;;4.04;79.33;100539.41;133592;1304;22462;-76
2023/04/02 16:12:51;;;;;;;;;;;;;;;4.05;79.52;100540.77;133784;1300;22479;-77
2023/04/02 16:16:11;;;;;;;;;;;;;;;4.06;79.56;100547.73;133605;1301;22461;-77
2023/04/02 16:19:35;;;;;;;;;;;;;;;4.03;78.53;100552.83;133786;1301;22450;-77
2023/04/02 16:22:52;;;;;;;;;;;;;;;4.00;78.60;100560.70;133620;1301;22472;-78
2023/04/02 16:26:22;;;;;;;;;;;;;;;3.99;79.05;100570.92;133593;1303;22455;-78
2023/04/02 16:33:44;;;;;;;;;;;;;;;;;;;;;
2023/04/02 16:37:01;;;;;;;;;;;;;;;3.76;80.45;100594.52;133434;1303;22475;-78
2023/04/02 16:40:34;;;;;;;;;;;;;;;3.67;81.14;100598.86;133429;1303;22473;-79
2023/04/02 16:43:56;;;;;;;;;;;;;;;3.60;81.75;100599.48;133200;1302;22485;-78
2023/04/02 16:47:34;;;;;;;;;;;;;;;;;;;;;
2023/04/02 16:51:23;;;;;;;;;;;;;;;;;;;;;
2023/04/02 16:55:02;;;;;;;;;;;;;;;;;;;;;
2023/04/02 16:58:12;;;;;;;;;;;;;;;3.30;83.54;100619.70;133441;1303;22487;-79
2023/04/02 17:01:13;;;;;;;;;;;;;;;3.27;83.58;100627.25;133367;1303;23181;-77
2023/04/02 17:04:29;;;;;;;;;;;;;;;3.27;83.89;100626.55;133455;1307;22446;-78
2023/04/02 17:07:45;;;;;;;;;;;;;;;;;;;;;
2023/04/02 17:10:49;;;;;;;;;;;;;;;3.27;84.47;100634.38;133397;1303;23188;-78
2023/04/02 17:14:10;;;;;;;;;;;;;;;3.26;84.78;100635.70;133432;1303;22935;-77
2023/04/02 17:17:24;;;;;;;;;;;;;;;;;;;;;
2023/04/02 17:20:39;;;;;;;;;;;;;;;;;;;;;
2023/04/02 17:23:50;;;;;;;;;;;;;;;3.24;84.90;100647.52;133406;1304;22578;-77
2023/04/02 17:26:59;;;;;;;;;;;;;;;3.23;85.18;100649.86;133464;1304;24713;-77
2023/04/02 17:30:31;;;;;;;;;;;;;;;;;;;;;
2023/04/02 17:33:38;;;;;;;;;;;;;;;3.23;85.25;100660.23;133795;1307;22468;-78
2023/04/02 17:37:27;;;;;;;;;;;;;;;;;;;;;
2023/04/02 17:40:50;;;;;;;;;;;;;;;3.24;85.50;100666.77;133005;1307;23222;-77
2023/04/02 17:44:23;;;;;;;;;;;;;;;3.24;85.39;100670.78;133111;1298;22551;-79
2023/04/02 17:47:42;;;;;;;;;;;;;;;3.26;85.07;100670.84;133767;1301;22458;-79
2023/04/02 17:51:01;;;;;;;;;;;;;;;3.27;84.78;100669.73;133785;1301;22457;-77
2023/04/02 17:54:09;;;;;;;;;;;;;;;3.28;84.93;100674.15;133786;1301;22475;-78
2023/04/02 17:57:29;;;;;;;;;;;;;;;3.31;84.62;100686.08;133796;1301;22460;-78
2023/04/02 18:00:40;;;;;;;;;;;;;;;3.32;84.38;100688.27;133437;1307;22472;-78
2023/04/02 18:04:04;;;;;;;;;;;;;;;3.33;83.47;100692.90;133763;1300;23148;-77
2023/04/02 18:07:11;;;;;;;;;;;;;;;3.34;82.98;100694.36;133835;1307;22556;-75
2023/04/02 18:14:26;;;;;;;;;;;;;;;3.38;82.44;100714.05;133774;1307;22560;-77
2023/04/02 18:17:52;;;;;;;;;;;;;;;3.37;82.34;100719.86;133783;1301;22542;-80
2023/04/02 18:21:20;;;;;;;;;;;;;;;3.37;82.19;100725.15;133623;1304;22473;-80
2023/04/02 18:24:41;;;;;;;;;;;;;;;3.35;81.31;100728.58;133781;1304;22480;-82
2023/04/02 18:28:05;;;;;;;;;;;;;;;3.35;81.68;100736.13;133846;1301;23165;-82
2023/04/02 18:31:15;;;;;;;;;;;;;;;3.34;81.70;100743.50;133762;1302;24412;-80
2023/04/02 18:34:35;;;;;;;;;;;;;;;3.34;81.62;100746.03;133776;1301;23229;-80
2023/04/02 18:37:52;;;;;;;;;;;;;;;3.32;82.01;100749.61;133749;1301;23152;-80
2023/04/02 18:41:24;;;;;;;;;;;;;;;3.32;82.33;100758.36;133796;1300;22448;-80
2023/04/02 18:44:44;;;;;;;;;;;;;;;3.31;82.15;100762.78;133775;1301;23594;-79
2023/04/02 18:47:59;;;;;;;;;;;;;;;3.27;80.88;100766.06;133808;1301;22455;-80
2023/04/02 18:51:01;;;;;;;;;;;;;;;3.20;80.80;100771.61;133808;1301;22423;-79
2023/04/02 18:54:11;;;;;;;;;;;;;;;3.15;80.51;100773.14;133795;1307;22494;-80
2023/04/02 18:57:41;;;;;;;;;;;;;;;3.13;79.08;100777.27;133795;1301;23139;-80
2023/04/02 19:00:44;;;;;;;;;;;;;;;3.13;78.76;100776.81;133794;1301;22447;-80
2023/04/02 19:03:50;;;;;;;;;;;;;;;3.11;78.50;100784.04;133623;1301;23155;-80
2023/04/02 19:06:56;;;;;;;;;;;;;;;3.12;78.14;100783.13;133769;1304;22493;-81
2023/04/02 19:10:05;;;;;;;;;;;;;;;3.11;78.01;100784.56;133655;1301;22468;-80
2023/04/02 19:13:15;;;;;;;;;;;;;;;3.12;77.91;100791.33;133805;1301;22445;-80
2023/04/02 19:16:19;;;;;;;;;;;;;;;3.14;77.80;100793.88;133673;1301;22525;-80
2023/04/02 19:19:21;;;;;;;;;;;;;;;3.14;78.09;100797.38;133628;1302;22437;-81